Aplicació Alertes

Dades de l'estació automàtica Port de Barcelona - Bocana Sud

?
?
Resum diari 13:00 TU
Dades diàries de l'estació meteorològica
Ratxa màxima del vent (10 m) 22.3 km/h - 182º 13:26 TU

El tram horari està expressat en Temps Universal (TU). Cal sumar una hora en horari d'hivern i dues en horari d'estiu per passar a l'hora oficial.

Port de Barcelona - Bocana Sud

Metadades estació meteorol´gica
Municipi El Prat de Llobregat
Comarca Baix Llobregat
Altitud 3 m
Data alta 08.04.2015
Estat actual Operativa
Dades de període
Període
TU
VVM (10 m)
km/h
DVM (10 m)
graus
VVX (10 m)
km/h
00:00 - 00:30 8.3 264 10.1
00:30 - 01:00 9.7 271 12.6
01:00 - 01:30 5.8 280 9.4
01:30 - 02:00 8.3 272 10.8
02:00 - 02:30 9.0 275 12.2
02:30 - 03:00 10.8 279 13.3
03:00 - 03:30 11.2 284 14.4
03:30 - 04:00 11.2 285 15.8
04:00 - 04:30 12.2 289 16.2
04:30 - 05:00 12.6 281 16.9
05:00 - 05:30 9.7 290 15.1
05:30 - 06:00 11.2 285 16.2
06:00 - 06:30 13.3 278 18.0
06:30 - 07:00 11.2 275 16.6
07:00 - 07:30 13.0 279 16.6
07:30 - 08:00 11.2 289 14.8
08:00 - 08:30 10.1 272 12.2
08:30 - 09:00 9.4 273 11.9
09:00 - 09:30 6.8 277 10.8
09:30 - 10:00 4.0 229 10.1
10:00 - 10:30 4.3 151 9.4
10:30 - 11:00 6.8 146 10.1
11:00 - 11:30 8.3 147 13.0
11:30 - 12:00 10.8 159 14.8
12:00 - 12:30 11.5 166 16.6
12:30 - 13:00 13.3 178 19.8
13:00 - 13:30 16.2 182 22.3
13:30 - 14:00 (s/d) (s/d) (s/d)

Les dades en taronja només han passat un control de qualitat automàtic. Resta pendent la seva validació definitiva.